sensor_id;sensor_type;location;lat;lon;timestamp;P1;durP1;ratioP1;P2;durP2;ratioP2
42846;SDS011;28495;49.916;14.536;2023-02-12T00:04:56;13.38;;;8.57;;
42846;SDS011;28495;49.916;14.536;2023-02-12T00:10:17;13.90;;;8.00;;
42846;SDS011;28495;49.916;14.536;2023-02-12T00:15:39;17.30;;;9.55;;
42846;SDS011;28495;49.916;14.536;2023-02-12T00:21:01;20.38;;;10.35;;
42846;SDS011;28495;49.916;14.536;2023-02-12T00:26:22;14.77;;;8.73;;
42846;SDS011;28495;49.916;14.536;2023-02-12T00:31:44;17.60;;;9.88;;
42846;SDS011;28495;49.916;14.536;2023-02-12T00:37:05;16.58;;;8.27;;
42846;SDS011;28495;49.916;14.536;2023-02-12T00:42:26;17.63;;;9.63;;
42846;SDS011;28495;49.916;14.536;2023-02-12T00:47:48;17.30;;;9.13;;
42846;SDS011;28495;49.916;14.536;2023-02-12T00:53:09;19.15;;;9.85;;
42846;SDS011;28495;49.916;14.536;2023-02-12T00:58:30;17.85;;;9.52;;
42846;SDS011;28495;49.916;14.536;2023-02-12T01:03:51;22.38;;;10.65;;
42846;SDS011;28495;49.916;14.536;2023-02-12T01:09:13;17.00;;;9.65;;
42846;SDS011;28495;49.916;14.536;2023-02-12T01:14:34;14.80;;;7.68;;
42846;SDS011;28495;49.916;14.536;2023-02-12T01:19:56;18.33;;;9.30;;
42846;SDS011;28495;49.916;14.536;2023-02-12T01:25:18;18.02;;;9.88;;
42846;SDS011;28495;49.916;14.536;2023-02-12T01:30:40;17.35;;;8.90;;
42846;SDS011;28495;49.916;14.536;2023-02-12T01:36:01;16.08;;;8.82;;
42846;SDS011;28495;49.916;14.536;2023-02-12T01:41:23;16.10;;;8.77;;
42846;SDS011;28495;49.916;14.536;2023-02-12T01:46:57;16.45;;;8.60;;
42846;SDS011;28495;49.916;14.536;2023-02-12T01:52:21;16.17;;;8.02;;
42846;SDS011;28495;49.916;14.536;2023-02-12T01:57:47;14.15;;;8.40;;
42846;SDS011;28495;49.916;14.536;2023-02-12T02:03:10;14.73;;;8.63;;
42846;SDS011;28495;49.916;14.536;2023-02-12T02:08:31;14.27;;;8.13;;
42846;SDS011;28495;49.916;14.536;2023-02-12T02:13:54;14.10;;;7.90;;
42846;SDS011;28495;49.916;14.536;2023-02-12T02:30:26;15.30;;;8.13;;
42846;SDS011;28495;49.916;14.536;2023-02-12T02:36:01;14.23;;;7.97;;
42846;SDS011;28495;49.916;14.536;2023-02-12T02:47:06;15.07;;;8.02;;
42846;SDS011;28495;49.916;14.536;2023-02-12T02:52:33;14.45;;;8.60;;
42846;SDS011;28495;49.916;14.536;2023-02-12T02:58:00;13.85;;;7.63;;
42846;SDS011;28495;49.916;14.536;2023-02-12T03:03:27;15.23;;;7.55;;
42846;SDS011;28495;49.916;14.536;2023-02-12T03:08:56;12.05;;;7.00;;
42846;SDS011;28495;49.916;14.536;2023-02-12T03:19:52;12.45;;;7.88;;
42846;SDS011;28495;49.916;14.536;2023-02-12T03:47:42;14.45;;;7.13;;
42846;SDS011;28495;49.916;14.536;2023-02-12T03:53:07;16.13;;;7.35;;
42846;SDS011;28495;49.916;14.536;2023-02-12T03:58:28;14.25;;;7.30;;
42846;SDS011;28495;49.916;14.536;2023-02-12T04:03:54;11.93;;;8.20;;
42846;SDS011;28495;49.916;14.536;2023-02-12T04:09:15;14.07;;;7.43;;
42846;SDS011;28495;49.916;14.536;2023-02-12T04:14:45;14.90;;;7.07;;
42846;SDS011;28495;49.916;14.536;2023-02-12T04:31:38;11.13;;;6.60;;
42846;SDS011;28495;49.916;14.536;2023-02-12T04:37:07;11.85;;;6.50;;
42846;SDS011;28495;49.916;14.536;2023-02-12T04:42:47;13.18;;;6.75;;
42846;SDS011;28495;49.916;14.536;2023-02-12T04:48:09;12.80;;;7.82;;
42846;SDS011;28495;49.916;14.536;2023-02-12T04:53:32;15.23;;;7.90;;
42846;SDS011;28495;49.916;14.536;2023-02-12T04:58:52;12.68;;;7.72;;
42846;SDS011;28495;49.916;14.536;2023-02-12T05:04:17;13.68;;;6.95;;
42846;SDS011;28495;49.916;14.536;2023-02-12T05:09:38;12.00;;;7.43;;
42846;SDS011;28495;49.916;14.536;2023-02-12T05:14:58;14.63;;;6.75;;
42846;SDS011;28495;49.916;14.536;2023-02-12T05:20:19;13.48;;;6.63;;
42846;SDS011;28495;49.916;14.536;2023-02-12T05:25:40;12.25;;;6.95;;
42846;SDS011;28495;49.916;14.536;2023-02-12T05:31:02;13.27;;;7.03;;
42846;SDS011;28495;49.916;14.536;2023-02-12T05:36:24;12.70;;;6.90;;
42846;SDS011;28495;49.916;14.536;2023-02-12T05:41:46;11.30;;;7.00;;
42846;SDS011;28495;49.916;14.536;2023-02-12T05:47:06;14.02;;;6.97;;
42846;SDS011;28495;49.916;14.536;2023-02-12T05:52:27;14.75;;;7.13;;
42846;SDS011;28495;49.916;14.536;2023-02-12T05:57:49;14.05;;;7.57;;
42846;SDS011;28495;49.916;14.536;2023-02-12T06:03:10;10.52;;;6.63;;
42846;SDS011;28495;49.916;14.536;2023-02-12T06:08:31;14.90;;;6.55;;
42846;SDS011;28495;49.916;14.536;2023-02-12T06:13:52;13.25;;;6.32;;
42846;SDS011;28495;49.916;14.536;2023-02-12T06:19:14;12.30;;;6.95;;
42846;SDS011;28495;49.916;14.536;2023-02-12T06:24:35;12.75;;;6.75;;
42846;SDS011;28495;49.916;14.536;2023-02-12T06:29:56;12.63;;;6.45;;
42846;SDS011;28495;49.916;14.536;2023-02-12T06:35:17;10.90;;;6.03;;
42846;SDS011;28495;49.916;14.536;2023-02-12T06:40:37;13.50;;;7.40;;
42846;SDS011;28495;49.916;14.536;2023-02-12T06:46:02;13.13;;;7.18;;
42846;SDS011;28495;49.916;14.536;2023-02-12T06:51:23;14.02;;;6.63;;
42846;SDS011;28495;49.916;14.536;2023-02-12T06:56:45;12.40;;;7.40;;
42846;SDS011;28495;49.916;14.536;2023-02-12T07:02:07;15.13;;;7.35;;
42846;SDS011;28495;49.916;14.536;2023-02-12T07:07:30;12.77;;;7.22;;
42846;SDS011;28495;49.916;14.536;2023-02-12T07:12:50;14.13;;;7.57;;
42846;SDS011;28495;49.916;14.536;2023-02-12T07:18:11;11.98;;;6.25;;
42846;SDS011;28495;49.916;14.536;2023-02-12T07:23:32;15.80;;;7.20;;
42846;SDS011;28495;49.916;14.536;2023-02-12T07:28:53;11.23;;;6.80;;
42846;SDS011;28495;49.916;14.536;2023-02-12T07:34:16;16.08;;;7.28;;
42846;SDS011;28495;49.916;14.536;2023-02-12T07:39:36;14.82;;;7.90;;
42846;SDS011;28495;49.916;14.536;2023-02-12T07:44:57;14.05;;;7.28;;
42846;SDS011;28495;49.916;14.536;2023-02-12T07:50:18;16.27;;;8.25;;
42846;SDS011;28495;49.916;14.536;2023-02-12T07:55:39;14.57;;;7.43;;
42846;SDS011;28495;49.916;14.536;2023-02-12T08:01:00;16.23;;;8.35;;
42846;SDS011;28495;49.916;14.536;2023-02-12T08:06:30;12.80;;;7.47;;
42846;SDS011;28495;49.916;14.536;2023-02-12T08:11:52;15.68;;;9.05;;
42846;SDS011;28495;49.916;14.536;2023-02-12T08:17:13;17.27;;;8.25;;
42846;SDS011;28495;49.916;14.536;2023-02-12T08:22:35;16.27;;;9.82;;
42846;SDS011;28495;49.916;14.536;2023-02-12T08:27:56;16.92;;;7.65;;
42846;SDS011;28495;49.916;14.536;2023-02-12T08:33:17;11.68;;;7.22;;
42846;SDS011;28495;49.916;14.536;2023-02-12T08:38:38;11.95;;;6.30;;
42846;SDS011;28495;49.916;14.536;2023-02-12T08:44:00;10.85;;;6.72;;
42846;SDS011;28495;49.916;14.536;2023-02-12T08:49:24;13.95;;;6.93;;
42846;SDS011;28495;49.916;14.536;2023-02-12T08:54:46;11.15;;;5.70;;
42846;SDS011;28495;49.916;14.536;2023-02-12T09:00:07;9.07;;;5.53;;
42846;SDS011;28495;49.916;14.536;2023-02-12T09:05:29;10.70;;;6.80;;
42846;SDS011;28495;49.916;14.536;2023-02-12T09:10:50;13.02;;;7.60;;
42846;SDS011;28495;49.916;14.536;2023-02-12T09:16:11;12.32;;;6.78;;
42846;SDS011;28495;49.916;14.536;2023-02-12T09:21:32;11.45;;;6.43;;
42846;SDS011;28495;49.916;14.536;2023-02-12T09:26:54;10.57;;;6.13;;
42846;SDS011;28495;49.916;14.536;2023-02-12T09:32:15;12.52;;;7.28;;
42846;SDS011;28495;49.916;14.536;2023-02-12T09:37:36;14.57;;;7.40;;
42846;SDS011;28495;49.916;14.536;2023-02-12T09:42:59;13.07;;;7.28;;
42846;SDS011;28495;49.916;14.536;2023-02-12T09:54:11;14.00;;;8.10;;
42846;SDS011;28495;49.916;14.536;2023-02-12T09:59:36;14.43;;;7.32;;
42846;SDS011;28495;49.916;14.536;2023-02-12T10:05:00;16.13;;;6.85;;
42846;SDS011;28495;49.916;14.536;2023-02-12T10:33:16;13.27;;;6.75;;
42846;SDS011;28495;49.916;14.536;2023-02-12T10:38:41;12.63;;;7.80;;
42846;SDS011;28495;49.916;14.536;2023-02-12T10:44:08;15.10;;;8.05;;
42846;SDS011;28495;49.916;14.536;2023-02-12T10:49:30;13.25;;;7.47;;
42846;SDS011;28495;49.916;14.536;2023-02-12T10:54:52;12.82;;;7.03;;
42846;SDS011;28495;49.916;14.536;2023-02-12T11:00:24;14.27;;;8.43;;
42846;SDS011;28495;49.916;14.536;2023-02-12T11:05:52;14.95;;;7.82;;
42846;SDS011;28495;49.916;14.536;2023-02-12T11:16:54;12.73;;;7.43;;
42846;SDS011;28495;49.916;14.536;2023-02-12T11:27:38;14.10;;;7.00;;
42846;SDS011;28495;49.916;14.536;2023-02-12T11:38:57;9.02;;;6.45;;
42846;SDS011;28495;49.916;14.536;2023-02-12T11:44:29;8.88;;;5.50;;
42846;SDS011;28495;49.916;14.536;2023-02-12T11:50:03;12.65;;;6.45;;
42846;SDS011;28495;49.916;14.536;2023-02-12T11:55:29;9.40;;;5.50;;
42846;SDS011;28495;49.916;14.536;2023-02-12T12:00:55;12.00;;;5.43;;
42846;SDS011;28495;49.916;14.536;2023-02-12T12:17:14;9.75;;;4.38;;
42846;SDS011;28495;49.916;14.536;2023-02-12T12:22:56;13.10;;;5.15;;
42846;SDS011;28495;49.916;14.536;2023-02-12T12:34:10;15.70;;;5.85;;
42846;SDS011;28495;49.916;14.536;2023-02-12T12:51:22;9.90;;;4.22;;
42846;SDS011;28495;49.916;14.536;2023-02-12T12:57:00;10.57;;;4.63;;
42846;SDS011;28495;49.916;14.536;2023-02-12T13:13:48;10.75;;;4.35;;
42846;SDS011;28495;49.916;14.536;2023-02-12T13:30:44;7.60;;;4.38;;
42846;SDS011;28495;49.916;14.536;2023-02-12T13:36:11;11.50;;;5.43;;
42846;SDS011;28495;49.916;14.536;2023-02-12T13:41:34;9.68;;;4.53;;
42846;SDS011;28495;49.916;14.536;2023-02-12T13:47:04;12.13;;;5.00;;
42846;SDS011;28495;49.916;14.536;2023-02-12T14:10:03;11.85;;;5.15;;
42846;SDS011;28495;49.916;14.536;2023-02-12T14:15:27;10.45;;;5.43;;
42846;SDS011;28495;49.916;14.536;2023-02-12T14:26:34;9.60;;;4.65;;
42846;SDS011;28495;49.916;14.536;2023-02-12T14:31:58;8.48;;;4.72;;
42846;SDS011;28495;49.916;14.536;2023-02-12T14:37:32;9.52;;;4.78;;
42846;SDS011;28495;49.916;14.536;2023-02-12T14:42:57;12.55;;;4.30;;
42846;SDS011;28495;49.916;14.536;2023-02-12T14:54:01;10.13;;;5.68;;
42846;SDS011;28495;49.916;14.536;2023-02-12T14:59:26;13.05;;;5.68;;
42846;SDS011;28495;49.916;14.536;2023-02-12T15:04:51;14.52;;;6.75;;
42846;SDS011;28495;49.916;14.536;2023-02-12T15:10:15;9.45;;;4.97;;
42846;SDS011;28495;49.916;14.536;2023-02-12T15:15:44;8.85;;;4.40;;
42846;SDS011;28495;49.916;14.536;2023-02-12T15:26:48;8.32;;;4.68;;
42846;SDS011;28495;49.916;14.536;2023-02-12T15:32:21;10.27;;;5.00;;
42846;SDS011;28495;49.916;14.536;2023-02-12T15:37:45;11.87;;;5.47;;
42846;SDS011;28495;49.916;14.536;2023-02-12T15:43:15;10.05;;;5.47;;
42846;SDS011;28495;49.916;14.536;2023-02-12T15:48:37;9.82;;;4.38;;
42846;SDS011;28495;49.916;14.536;2023-02-12T15:53:59;8.82;;;5.25;;
42846;SDS011;28495;49.916;14.536;2023-02-12T15:59:25;11.25;;;4.75;;
42846;SDS011;28495;49.916;14.536;2023-02-12T16:04:48;10.52;;;4.75;;
42846;SDS011;28495;49.916;14.536;2023-02-12T16:10:20;11.93;;;4.82;;
42846;SDS011;28495;49.916;14.536;2023-02-12T16:15:42;10.60;;;4.93;;
42846;SDS011;28495;49.916;14.536;2023-02-12T16:26:55;10.15;;;5.65;;
42846;SDS011;28495;49.916;14.536;2023-02-12T16:37:52;13.75;;;5.65;;
42846;SDS011;28495;49.916;14.536;2023-02-12T16:43:22;7.50;;;4.55;;
42846;SDS011;28495;49.916;14.536;2023-02-12T16:48:48;13.63;;;5.28;;
42846;SDS011;28495;49.916;14.536;2023-02-12T16:54:30;10.95;;;5.53;;
42846;SDS011;28495;49.916;14.536;2023-02-12T16:59:53;11.95;;;5.40;;
42846;SDS011;28495;49.916;14.536;2023-02-12T17:05:14;14.38;;;5.18;;
42846;SDS011;28495;49.916;14.536;2023-02-12T17:10:37;10.90;;;5.10;;
42846;SDS011;28495;49.916;14.536;2023-02-12T17:15:59;9.13;;;4.55;;
42846;SDS011;28495;49.916;14.536;2023-02-12T17:21:27;10.52;;;5.40;;
42846;SDS011;28495;49.916;14.536;2023-02-12T17:27:00;13.65;;;6.55;;
42846;SDS011;28495;49.916;14.536;2023-02-12T17:32:22;11.63;;;5.30;;
42846;SDS011;28495;49.916;14.536;2023-02-12T17:37:45;12.82;;;6.10;;
42846;SDS011;28495;49.916;14.536;2023-02-12T17:43:07;14.32;;;7.00;;
42846;SDS011;28495;49.916;14.536;2023-02-12T17:48:28;11.90;;;6.03;;
42846;SDS011;28495;49.916;14.536;2023-02-12T17:53:49;11.93;;;6.30;;
42846;SDS011;28495;49.916;14.536;2023-02-12T17:59:10;9.50;;;4.85;;
42846;SDS011;28495;49.916;14.536;2023-02-12T18:04:31;17.65;;;9.27;;
42846;SDS011;28495;49.916;14.536;2023-02-12T18:09:55;11.48;;;6.30;;
42846;SDS011;28495;49.916;14.536;2023-02-12T18:15:16;17.52;;;8.30;;
42846;SDS011;28495;49.916;14.536;2023-02-12T18:20:40;18.30;;;9.88;;
42846;SDS011;28495;49.916;14.536;2023-02-12T18:26:12;21.92;;;11.25;;
42846;SDS011;28495;49.916;14.536;2023-02-12T18:31:35;21.13;;;12.45;;
42846;SDS011;28495;49.916;14.536;2023-02-12T18:36:56;26.58;;;13.43;;
42846;SDS011;28495;49.916;14.536;2023-02-12T18:42:17;21.17;;;12.23;;
42846;SDS011;28495;49.916;14.536;2023-02-12T18:47:38;22.13;;;12.95;;
42846;SDS011;28495;49.916;14.536;2023-02-12T18:52:58;19.83;;;10.90;;
42846;SDS011;28495;49.916;14.536;2023-02-12T18:58:19;20.67;;;10.88;;
42846;SDS011;28495;49.916;14.536;2023-02-12T19:03:40;20.00;;;11.63;;
42846;SDS011;28495;49.916;14.536;2023-02-12T19:09:02;20.65;;;10.32;;
42846;SDS011;28495;49.916;14.536;2023-02-12T19:14:23;11.80;;;7.72;;
42846;SDS011;28495;49.916;14.536;2023-02-12T19:19:47;14.15;;;7.13;;
42846;SDS011;28495;49.916;14.536;2023-02-12T19:25:09;12.85;;;6.85;;
42846;SDS011;28495;49.916;14.536;2023-02-12T19:30:30;26.77;;;16.10;;
42846;SDS011;28495;49.916;14.536;2023-02-12T19:35:51;20.15;;;11.88;;
42846;SDS011;28495;49.916;14.536;2023-02-12T19:41:14;26.15;;;11.68;;
42846;SDS011;28495;49.916;14.536;2023-02-12T19:46:37;16.05;;;8.57;;
42846;SDS011;28495;49.916;14.536;2023-02-12T19:52:00;20.77;;;11.23;;
42846;SDS011;28495;49.916;14.536;2023-02-12T19:57:21;21.80;;;11.93;;
42846;SDS011;28495;49.916;14.536;2023-02-12T20:02:42;27.20;;;12.90;;
42846;SDS011;28495;49.916;14.536;2023-02-12T20:08:03;22.25;;;9.25;;
42846;SDS011;28495;49.916;14.536;2023-02-12T20:13:24;20.10;;;9.57;;
42846;SDS011;28495;49.916;14.536;2023-02-12T20:18:46;12.63;;;7.13;;
42846;SDS011;28495;49.916;14.536;2023-02-12T20:24:08;17.13;;;7.80;;
42846;SDS011;28495;49.916;14.536;2023-02-12T20:29:29;11.05;;;6.30;;
42846;SDS011;28495;49.916;14.536;2023-02-12T20:34:52;15.35;;;7.68;;
42846;SDS011;28495;49.916;14.536;2023-02-12T20:40:13;21.42;;;10.60;;
42846;SDS011;28495;49.916;14.536;2023-02-12T20:45:34;22.50;;;10.98;;
42846;SDS011;28495;49.916;14.536;2023-02-12T20:50:55;17.85;;;10.18;;
42846;SDS011;28495;49.916;14.536;2023-02-12T20:56:21;17.52;;;9.77;;
42846;SDS011;28495;49.916;14.536;2023-02-12T21:01:44;16.10;;;8.95;;
42846;SDS011;28495;49.916;14.536;2023-02-12T21:07:05;16.85;;;8.55;;
42846;SDS011;28495;49.916;14.536;2023-02-12T21:12:26;15.48;;;8.13;;
42846;SDS011;28495;49.916;14.536;2023-02-12T21:17:47;16.52;;;8.85;;
42846;SDS011;28495;49.916;14.536;2023-02-12T21:23:08;16.42;;;9.07;;
42846;SDS011;28495;49.916;14.536;2023-02-12T21:28:29;20.40;;;8.73;;
42846;SDS011;28495;49.916;14.536;2023-02-12T21:33:52;13.25;;;7.97;;
42846;SDS011;28495;49.916;14.536;2023-02-12T21:39:15;17.02;;;9.15;;
42846;SDS011;28495;49.916;14.536;2023-02-12T21:55:26;13.30;;;7.15;;
42846;SDS011;28495;49.916;14.536;2023-02-12T22:00:47;11.55;;;7.22;;
42846;SDS011;28495;49.916;14.536;2023-02-12T22:06:10;11.05;;;6.45;;
42846;SDS011;28495;49.916;14.536;2023-02-12T22:11:32;15.57;;;9.05;;
42846;SDS011;28495;49.916;14.536;2023-02-12T22:16:54;16.88;;;9.85;;
42846;SDS011;28495;49.916;14.536;2023-02-12T22:22:15;17.20;;;8.48;;
42846;SDS011;28495;49.916;14.536;2023-02-12T22:27:36;14.32;;;7.50;;
42846;SDS011;28495;49.916;14.536;2023-02-12T22:32:58;12.27;;;7.63;;
42846;SDS011;28495;49.916;14.536;2023-02-12T22:38:18;13.15;;;7.53;;
42846;SDS011;28495;49.916;14.536;2023-02-12T22:43:39;22.10;;;10.40;;
42846;SDS011;28495;49.916;14.536;2023-02-12T22:49:01;33.95;;;13.93;;
42846;SDS011;28495;49.916;14.536;2023-02-12T22:54:22;14.43;;;7.70;;
42846;SDS011;28495;49.916;14.536;2023-02-12T22:59:42;15.35;;;7.38;;
42846;SDS011;28495;49.916;14.536;2023-02-12T23:05:03;24.65;;;10.18;;
42846;SDS011;28495;49.916;14.536;2023-02-12T23:10:24;25.35;;;11.15;;
42846;SDS011;28495;49.916;14.536;2023-02-12T23:15:46;14.35;;;6.57;;
42846;SDS011;28495;49.916;14.536;2023-02-12T23:21:06;9.50;;;5.90;;
42846;SDS011;28495;49.916;14.536;2023-02-12T23:26:28;8.95;;;6.00;;
42846;SDS011;28495;49.916;14.536;2023-02-12T23:31:49;15.30;;;8.60;;
42846;SDS011;28495;49.916;14.536;2023-02-12T23:37:10;13.52;;;7.28;;
42846;SDS011;28495;49.916;14.536;2023-02-12T23:42:31;13.25;;;7.50;;
42846;SDS011;28495;49.916;14.536;2023-02-12T23:47:52;19.98;;;8.98;;
42846;SDS011;28495;49.916;14.536;2023-02-12T23:53:13;12.57;;;7.38;;
42846;SDS011;28495;49.916;14.536;2023-02-12T23:58:34;11.10;;;7.25;;
